CheckWX is a tool to help pilots better visualize weather data.  It is not intended as a substitute for an official pre-flight weather briefing.

09:28:54 UTC

CYVP METAR
Kuujjuaq Airport
Kuujjuaq, Canada
Current

29 mins ago

CYVP 200900Z 26011G16KT 6SM IC SCT059 M27/M32 A2996 RMK SC4 SLP153
Observed
Feb-20 @ 09:00 UTC
Wind
  • 260° at 11 KTS
  • Gusting to 16 KTS
Visibility
9,656 meters
Flight Rules
VFR
Conditions
Ice crystals
Cloud Levels
  • Scattered at 5,900' AGL
Temperature
-27°C / -17°F
Dewpoint
-32°C / -26°F
Humidity
63%
Altimeter
29.96" Hg
Pressure
1015.3 hPa
Previous

1 hour ago

CYVP 200800Z 26010KT 230V290 6SM IC SCT051 M27/M32 A2995 RMK SC4 SLP149
Observed
Feb-20 @ 08:00 UTC
Wind
  • 260° at 10 KTS
Visibility
9,656 meters
Flight Rules
VFR
Conditions
Ice crystals
Cloud Levels
  • Scattered at 5,100' AGL
Temperature
-27°C / -17°F
Dewpoint
-32°C / -26°F
Humidity
63%
Altimeter
29.95" Hg
Pressure
1014.9 hPa
Previous

2 hours ago

CYVP 200700Z 24006KT 200V280 8SM IC SCT052 M27/M32 A2994 RMK SC3 SLP145
Observed
Feb-20 @ 07:00 UTC
Wind
  • 240° at 6 KTS
Visibility
12,875 meters
Flight Rules
VFR
Conditions
Ice crystals
Cloud Levels
  • Scattered at 5,200' AGL
Temperature
-27°C / -17°F
Dewpoint
-32°C / -26°F
Humidity
63%
Altimeter
29.94" Hg
Pressure
1014.5 hPa